createdAt,value
2023-03-11T10:28:05.571Z,2.55
2023-03-11T10:30:41.103Z,3.30
2023-03-11T10:33:33.586Z,10.45
2023-03-11T10:36:06.454Z,1.92
2023-03-11T10:38:37.265Z,0.90
2023-03-11T10:41:12.616Z,0.75
2023-03-11T10:43:45.010Z,1.25
2023-03-11T10:46:31.700Z,1.25
2023-03-11T10:48:58.157Z,1.90
2023-03-11T10:51:34.252Z,1.83
2023-03-11T10:54:02.246Z,0.68
2023-03-11T10:56:31.055Z,10.90
2023-03-11T10:58:58.157Z,0.73
2023-03-11T11:01:25.459Z,1.88
2023-03-11T11:03:56.950Z,7.87
2023-03-11T11:06:27.643Z,2.00
2023-03-11T11:09:19.169Z,2.38
2023-03-11T11:12:14.602Z,1.25
2023-03-11T11:14:52.495Z,6.57
2023-03-11T11:17:26.746Z,2.23
2023-03-11T11:19:54.346Z,2.45
2023-03-11T11:22:23.007Z,5.65
2023-03-11T11:24:52.494Z,1.95
2023-03-11T11:27:24.897Z,0.40
2023-03-11T11:30:09.588Z,0.93
2023-03-11T11:32:37.278Z,1.20
2023-03-11T11:35:05.651Z,2.47
2023-03-11T11:37:35.728Z,5.40
2023-03-11T11:40:11.524Z,1.25
2023-03-11T11:42:40.493Z,1.23
2023-03-11T11:45:15.849Z,2.10
2023-03-11T11:47:48.452Z,2.05
2023-03-11T11:50:26.728Z,1.00
2023-03-11T11:53:00.721Z,2.03
2023-03-11T11:55:30.502Z,4.53
2023-03-11T11:57:57.447Z,2.60
2023-03-11T12:01:03.408Z,1.75
2023-03-11T12:03:57.554Z,1.02
2023-03-11T12:06:50.494Z,4.20
2023-03-11T12:09:37.820Z,2.80
2023-03-11T12:12:16.317Z,2.50
2023-03-11T12:15:16.449Z,0.75
2023-03-11T12:17:46.592Z,2.05
2023-03-11T12:20:22.953Z,1.23
2023-03-11T12:23:07.382Z,1.73
2023-03-11T12:25:39.451Z,3.70
2023-03-11T12:28:20.266Z,1.90
2023-03-11T12:30:54.243Z,3.70
2023-03-11T12:33:27.700Z,1.65
2023-03-11T12:35:56.940Z,1.20
2023-03-11T12:38:39.933Z,3.10
2023-03-11T12:41:15.252Z,4.53
2023-03-11T12:43:41.612Z,0.80
2023-03-11T12:46:10.956Z,2.40
2023-03-11T12:48:55.978Z,3.90
2023-03-11T12:51:34.735Z,4.07
2023-03-11T12:54:39.415Z,1.55
2023-03-11T12:57:17.777Z,4.25
2023-03-11T13:00:17.430Z,3.55
2023-03-11T13:03:05.671Z,0.80
2023-03-11T13:05:41.215Z,0.55
2023-03-11T13:08:15.730Z,1.73
2023-03-11T13:10:45.147Z,1.38
2023-03-11T13:13:30.146Z,3.53
2023-03-11T13:15:57.660Z,1.47
2023-03-11T13:18:32.833Z,4.68
2023-03-11T13:21:01.595Z,3.50
2023-03-11T13:23:34.212Z,1.95
2023-03-11T13:26:09.742Z,1.20
2023-03-11T13:29:01.742Z,0.40
2023-03-11T13:31:49.683Z,4.95
2023-03-11T13:34:37.961Z,1.55
2023-03-11T13:37:34.676Z,2.97
2023-03-11T13:40:25.969Z,0.47
2023-03-11T13:42:56.767Z,1.97
2023-03-11T13:45:30.353Z,0.45
2023-03-11T13:48:01.599Z,0.75
2023-03-11T13:50:35.238Z,1.65
2023-03-11T13:53:07.595Z,0.95
2023-03-11T13:55:43.007Z,1.02
2023-03-11T13:58:35.486Z,0.28
2023-03-11T14:01:02.490Z,3.15
2023-03-11T14:03:36.369Z,0.30
2023-03-11T14:06:06.524Z,0.55
2023-03-11T14:08:37.649Z,1.65
2023-03-11T14:11:17.026Z,0.55
2023-03-11T14:13:43.340Z,0.55
2023-03-11T14:16:21.355Z,1.30
2023-03-11T14:19:01.020Z,0.32
2023-03-11T14:21:27.859Z,3.03
2023-03-11T14:23:55.863Z,0.47
2023-03-11T14:26:31.748Z,0.35
2023-03-11T14:29:07.199Z,1.70
2023-03-11T14:31:38.675Z,0.57
2023-03-11T14:34:20.036Z,3.80
2023-03-11T14:36:52.443Z,1.70
2023-03-11T14:39:33.607Z,0.75
2023-03-11T14:42:06.214Z,1.10
2023-03-11T14:44:36.308Z,0.25
2023-03-11T14:47:38.748Z,0.38
2023-03-11T14:50:09.982Z,1.60
2023-03-11T14:52:51.593Z,3.88
2023-03-11T14:55:40.416Z,0.77
2023-03-11T14:58:17.174Z,1.15
2023-03-11T15:00:50.018Z,10.83
2023-03-11T15:03:28.892Z,1.65
2023-03-11T15:05:59.592Z,0.65
2023-03-11T15:08:30.458Z,1.17
2023-03-11T15:11:11.935Z,1.20
2023-03-11T15:13:40.972Z,0.90
2023-03-11T15:16:28.731Z,0.68
2023-03-11T15:18:55.358Z,3.53
2023-03-11T15:21:24.088Z,0.98
2023-03-11T15:23:52.045Z,3.33
2023-03-11T15:26:21.708Z,1.07
2023-03-11T15:28:54.754Z,0.50
2023-03-11T15:31:21.145Z,2.60
2023-03-11T15:33:48.517Z,0.90
2023-03-11T15:36:33.246Z,3.63
2023-03-11T15:39:17.577Z,3.40
2023-03-11T15:41:46.584Z,2.50
2023-03-11T15:44:24.504Z,1.63
2023-03-11T15:46:50.930Z,0.43
2023-03-11T15:49:17.312Z,2.17
2023-03-11T15:51:43.645Z,2.70
2023-03-11T15:54:10.077Z,1.00
2023-03-11T15:56:37.006Z,2.13
2023-03-11T15:59:03.536Z,1.08
2023-03-11T16:01:30.299Z,2.22
2023-03-11T16:03:57.624Z,3.72
2023-03-11T16:06:24.072Z,0.70
2023-03-11T16:08:50.490Z,0.40
2023-03-11T16:11:18.710Z,0.75
2023-03-11T16:13:45.296Z,0.85
2023-03-11T16:16:16.459Z,1.48
2023-03-11T16:18:42.937Z,0.47
2023-03-11T16:21:15.510Z,1.40
2023-03-11T16:23:51.607Z,0.80
2023-03-11T16:26:19.668Z,2.38
2023-03-11T16:28:46.014Z,0.60
2023-03-11T16:31:12.432Z,2.58
2023-03-11T16:33:38.900Z,0.43
2023-03-11T16:36:05.853Z,0.28
2023-03-11T16:38:43.915Z,1.20
2023-03-11T16:41:10.583Z,0.82
2023-03-11T16:43:36.983Z,1.27
2023-03-11T16:46:03.528Z,8.15
2023-03-11T16:48:30.113Z,1.38
2023-03-11T16:50:56.597Z,0.28
2023-03-11T16:53:25.080Z,1.77
2023-03-11T16:55:52.861Z,0.70
2023-03-11T16:58:20.038Z,1.00
2023-03-11T17:00:46.640Z,0.63
2023-03-11T17:03:15.280Z,1.80
2023-03-11T17:05:42.589Z,0.75
2023-03-11T17:08:09.534Z,4.72
2023-03-11T17:10:39.229Z,0.63
2023-03-11T17:13:07.170Z,0.68
2023-03-11T17:15:35.229Z,0.53
2023-03-11T17:18:02.684Z,1.77
2023-03-11T17:20:29.114Z,2.95
2023-03-11T17:22:55.600Z,1.02
2023-03-11T17:25:22.351Z,0.90
2023-03-11T17:27:49.261Z,1.10
2023-03-11T17:30:24.239Z,0.47
2023-03-11T17:32:53.622Z,0.52
2023-03-11T17:35:20.026Z,2.05
2023-03-11T17:37:46.460Z,0.60
2023-03-11T17:40:12.845Z,0.40
2023-03-11T17:42:39.626Z,2.00
2023-03-11T17:45:06.916Z,4.03
2023-03-11T17:47:33.485Z,3.75
2023-03-11T17:50:00.106Z,0.80
2023-03-11T17:52:26.689Z,2.30
2023-03-11T17:54:53.465Z,4.60
2023-03-11T17:57:19.931Z,1.75
2023-03-11T17:59:49.890Z,2.00
2023-03-11T18:02:16.494Z,4.65
2023-03-11T18:04:45.919Z,0.27
2023-03-11T18:07:12.908Z,1.45
2023-03-11T18:09:39.238Z,1.65
2023-03-11T18:12:06.761Z,1.02
2023-03-11T18:14:33.327Z,0.73
2023-03-11T18:16:59.817Z,0.47
2023-03-11T18:19:26.189Z,0.75
2023-03-11T18:21:52.581Z,1.77
2023-03-11T18:24:18.980Z,0.38
2023-03-11T18:26:45.390Z,3.22
2023-03-11T18:29:11.778Z,0.30
2023-03-11T18:31:39.245Z,1.95
2023-03-11T18:34:12.195Z,0.77
2023-03-11T18:36:39.926Z,1.40
2023-03-11T18:39:06.635Z,1.77
2023-03-11T18:41:35.120Z,4.93
2023-03-11T18:44:01.827Z,1.42
2023-03-11T18:46:31.596Z,2.60
2023-03-11T18:48:58.944Z,4.63
2023-03-11T18:51:26.244Z,1.23
2023-03-11T18:53:52.582Z,1.47
2023-03-11T18:56:19.769Z,2.75
2023-03-11T18:58:46.356Z,3.35
2023-03-11T19:01:15.712Z,2.13
2023-03-11T19:03:43.122Z,7.20
2023-03-11T19:06:11.928Z,3.00
2023-03-11T19:08:39.022Z,4.25
2023-03-11T19:11:07.565Z,2.60
2023-03-11T19:13:46.191Z,5.57
2023-03-11T19:16:15.019Z,7.20
2023-03-11T19:18:41.529Z,4.27
2023-03-11T19:21:10.500Z,6.13
2023-03-11T19:23:37.070Z,5.32
2023-03-11T19:26:03.843Z,3.42
2023-03-11T19:28:30.373Z,3.08
2023-03-11T19:30:58.285Z,9.03
2023-03-11T19:33:26.045Z,20.60
2023-03-11T19:36:04.029Z,45.83
2023-03-11T19:38:30.768Z,30.42
2023-03-11T19:41:12.137Z,32.80
2023-03-11T19:43:38.862Z,20.60
2023-03-11T19:46:07.415Z,21.48
2023-03-11T19:48:33.929Z,12.07
2023-03-11T19:51:02.142Z,9.50
2023-03-11T19:53:28.560Z,2.95
2023-03-11T19:55:56.879Z,5.07
2023-03-11T19:58:27.273Z,1.90
2023-03-11T20:00:55.500Z,3.35
2023-03-11T20:03:22.766Z,5.05
2023-03-11T20:05:52.477Z,3.20
2023-03-11T20:08:21.387Z,2.60
2023-03-11T20:10:50.060Z,7.03
2023-03-11T20:13:18.018Z,12.30
2023-03-11T20:15:44.514Z,3.90
2023-03-11T20:18:10.959Z,3.17
2023-03-11T20:20:39.378Z,2.77
2023-03-11T20:23:05.975Z,4.18
2023-03-11T20:25:32.720Z,2.47
2023-03-11T20:28:00.509Z,1.83
2023-03-11T20:30:28.386Z,2.42
2023-03-11T20:32:55.051Z,3.13
2023-03-11T20:35:22.022Z,2.85
2023-03-11T20:37:48.800Z,3.05
2023-03-11T20:40:17.206Z,1.25
2023-03-11T20:42:46.772Z,3.90
2023-03-11T20:45:16.036Z,1.47
2023-03-11T20:47:44.019Z,2.38
2023-03-11T20:50:14.383Z,6.95
2023-03-11T20:52:46.065Z,1.50
2023-03-11T20:55:13.186Z,5.43
2023-03-11T20:57:40.097Z,2.27
2023-03-11T21:00:11.495Z,2.58
2023-03-11T21:02:42.475Z,3.78
2023-03-11T21:05:10.577Z,1.50
2023-03-11T21:07:37.357Z,1.52
2023-03-11T21:10:11.231Z,5.77
2023-03-11T21:12:37.879Z,3.33
2023-03-11T21:15:06.059Z,4.30
2023-03-11T21:17:33.434Z,5.25
2023-03-11T21:20:00.009Z,4.15
2023-03-11T21:22:26.768Z,3.83
2023-03-11T21:24:54.368Z,3.83
2023-03-11T21:27:26.227Z,2.70
2023-03-11T21:29:54.315Z,7.03
2023-03-11T21:32:22.006Z,2.35
2023-03-11T21:34:48.738Z,1.50
2023-03-11T21:37:15.253Z,2.92
2023-03-11T21:39:42.146Z,6.85
2023-03-11T21:42:08.529Z,1.58
2023-03-11T21:44:35.019Z,3.90
2023-03-11T21:47:01.492Z,1.90
2023-03-11T21:49:28.040Z,2.30
2023-03-11T21:51:54.526Z,4.65
2023-03-11T21:54:21.037Z,2.15
2023-03-11T21:56:47.499Z,4.30
2023-03-11T21:59:14.033Z,3.00
2023-03-11T22:01:40.501Z,3.67
2023-03-11T22:04:07.045Z,7.13
2023-03-11T22:06:33.698Z,1.83
2023-03-11T22:09:01.048Z,4.55
2023-03-11T22:11:27.875Z,2.50
2023-03-11T22:13:54.461Z,1.08
2023-03-11T22:16:22.107Z,2.00
2023-03-11T22:18:49.561Z,8.00
2023-03-11T22:21:17.141Z,3.50
2023-03-11T22:23:44.896Z,6.70
2023-03-11T22:26:11.358Z,10.80
2023-03-11T22:28:37.786Z,5.35
2023-03-11T22:31:09.410Z,5.63
2023-03-11T22:33:36.573Z,9.88
2023-03-11T22:36:04.748Z,7.57
2023-03-11T22:38:32.541Z,3.28
2023-03-11T22:41:00.384Z,3.67
2023-03-11T22:43:27.265Z,4.63
2023-03-11T22:45:53.701Z,19.27
2023-03-11T22:48:20.155Z,6.17
2023-03-11T22:50:47.057Z,6.53
2023-03-11T22:53:13.604Z,5.85
2023-03-11T22:55:41.494Z,3.90
2023-03-11T22:58:08.338Z,6.47
2023-03-11T23:00:35.232Z,10.20
2023-03-11T23:03:01.669Z,6.53
2023-03-11T23:05:28.432Z,7.15
2023-03-11T23:07:54.955Z,4.93
2023-03-11T23:10:21.708Z,9.70
2023-03-11T23:12:49.162Z,6.97
2023-03-11T23:15:17.869Z,11.90
2023-03-11T23:17:44.423Z,6.70
2023-03-11T23:20:14.024Z,7.20
2023-03-11T23:22:41.677Z,7.22
2023-03-11T23:25:12.189Z,10.87
2023-03-11T23:27:38.564Z,7.30
2023-03-11T23:30:06.071Z,3.90
2023-03-11T23:32:32.514Z,6.57
2023-03-11T23:34:58.901Z,5.63
2023-03-11T23:37:25.264Z,6.93
2023-03-11T23:39:51.729Z,4.50
2023-03-11T23:42:25.514Z,7.82
2023-03-11T23:44:52.791Z,6.57
2023-03-11T23:47:19.344Z,6.82
2023-03-11T23:49:45.735Z,6.80
2023-03-11T23:52:12.119Z,9.85
2023-03-11T23:54:38.498Z,4.43
2023-03-11T23:57:04.906Z,13.40
2023-03-11T23:59:31.270Z,5.10
